Hospital Samaritano Heliport

BR-0802 · Rio de Janeiro, 巴西

METAR的历史 BR-0802 · Hospital Samaritano Heliport

下面你可以看到过去几天的METARs。 选择年份以浏览从2007年开始的旧METAR。

2024年5月21日

时间 代码 天气 温度 能见度 天花板 METAR/SPECI
01:00
V
25 °C 10 km+ 4.000 ft 010° 010° 3 kt METAR SBRJ 210400Z 01003KT 9999 SCT025 BKN040 25/21 Q1019
00:00
V
25 °C 10 km+ 4.000 ft 190° 190° 6 kt METAR SBRJ 210300Z 19006KT 9999 FEW020 BKN040 25/21 Q1019

2024年5月20日

时间 代码 天气 温度 能见度 天花板 METAR/SPECI
23:00
V
25 °C 10 km+ 4.000 ft 190° 190° 8 kt METAR SBRJ 210200Z 19008KT 9999 FEW020 BKN040 25/21 Q1019
22:00
V
25 °C 10 km+ 4.000 ft 200° 200° 8 kt METAR SBRJ 210100Z 20008KT 9999 FEW018 BKN040 25/21 Q1019
21:00
V
25 °C 10 km+ 4.000 ft 200° 200° 9 kt METAR SBRJ 210000Z 20009KT 9999 FEW018 BKN040 25/22 Q1018
20:00
V
25 °C 10 km+ 3.500 ft 190° 190° 8 kt METAR SBRJ 202300Z 19008KT 9999 FEW012 BKN035 25/22 Q1018
19:00
V
25 °C 10 km+ 3.500 ft 200° 200° 11 kt METAR SBRJ 202200Z 20011KT 9999 FEW012 BKN035 25/21 Q1017
18:00
V
25 °C 10 km+ 10.000 ft 200° 200° 14 - 25 kt METAR SBRJ 202100Z 20014G25KT 9999 FEW010 SCT020 BKN100 25/22 Q1016
17:00
V
27 °C 10 km+ 10.000 ft 210° 210° 11 kt METAR SBRJ 202000Z 21011KT 9999 FEW012 SCT020 BKN100 27/22 Q1015
16:00
V
27 °C 10 km+ - 200° 200° 21 kt METAR SBRJ 201900Z 20021KT 9999 FEW020 27/22 Q1014
15:00
V
27 °C 10 km+ - 150° 150° 11 kt METAR SBRJ 201800Z 15011KT CAVOK 27/23 Q1013
14:00
V
29 °C 10 km+ - 020° 020° 3 kt METAR SBRJ 201700Z 02003KT 340V060 CAVOK 29/23 Q1013
13:00
V
27 °C 10 km+ - 030° 030° 3 kt METAR SBRJ 201600Z 03003KT 360V060 CAVOK 27/23 Q1014
12:00
V
27 °C 9 km - 140° 140° 6 kt METAR SBRJ 201500Z 14006KT 9000 NSC 27/23 Q1015
11:00
V
27 °C 9 km - 050° 050° 2 kt METAR SBRJ 201400Z 05002KT 9000 NSC 27/23 Q1016
10:00
V
26 °C 8 km - 350° 350° 5 kt METAR SBRJ 201300Z 35005KT 320V020 8000 FEW020 26/23 Q1017
09:00
M
25 °C 7 km - 030° 030° 4 kt METAR SBRJ 201200Z 03004KT 7000 FEW020 25/23 Q1017
08:00
V
24 °C 8 km - Var Var 3 kt METAR SBRJ 201100Z VRB03KT 8000 FEW020 24/23 Q1016
07:00
V
23 °C 9 km - 020° 020° 5 kt METAR SBRJ 201000Z 02005KT 9000 FEW015 23/22 Q1016
06:00
V
23 °C 9 km - 350° 350° 4 kt METAR SBRJ 200900Z 35004KT 9000 NSC 23/22 Q1015
05:00
V
23 °C 9 km - 010° 010° 2 kt METAR SBRJ 200800Z 01002KT 9000 NSC 23/22 Q1015
04:00
V
23 °C 10 km+ - 320° 320° 3 kt METAR SBRJ 200700Z 32003KT CAVOK 23/22 Q1015
03:00
V
23 °C 10 km+ - 340° 340° 3 kt METAR SBRJ 200600Z 34003KT 9999 FEW020 23/22 Q1015
02:00
V
23 °C 10 km+ - 340° 340° 5 kt METAR SBRJ 200500Z 34005KT 9999 SCT020 23/22 Q1016
01:00
V
24 °C 10 km+ - 350° 350° 3 kt METAR SBRJ 200400Z 35003KT 9999 FEW010 SCT020 24/23 Q1016
00:00
V
24 °C 10 km+ - 130° 130° 2 kt METAR SBRJ 200300Z 13002KT 9999 SCT018 24/23 Q1017

2024年5月19日

时间 代码 天气 温度 能见度 天花板 METAR/SPECI
23:00
V
24 °C 10 km+ - 150° 150° 4 kt METAR SBRJ 200200Z 15004KT 9999 SCT018 24/23 Q1017
22:00
V
24 °C 10 km+ - 150° 150° 4 kt METAR SBRJ 200100Z 15004KT 9999 SCT020 SCT050 24/23 Q1017
21:00
V
25 °C 10 km+ 5.000 ft 190° 190° 7 kt METAR SBRJ 200000Z 19007KT 9999 FEW015 SCT020 BKN050 25/22 Q1017
20:00
V
25 °C 10 km+ 5.000 ft 190° 190° 6 kt METAR SBRJ 192300Z 19006KT 9999 SCT020 BKN050 25/22 Q1017
19:00
V
26 °C 10 km+ 5.000 ft 210° 210° 8 kt METAR SBRJ 192200Z 21008KT 9999 FEW020 BKN050 26/22 Q1017
18:00
V
25 °C 10 km+ 5.000 ft 210° 210° 9 kt METAR SBRJ 192100Z 21009KT 9999 FEW013 BKN050 25/22 Q1016
17:00
V
26 °C 10 km+ 4.000 ft 190° 190° 12 kt METAR SBRJ 192000Z 19012KT 9999 FEW010 SCT020 BKN040 26/23 Q1016
16:00
V
26 °C 10 km+ 3.500 ft 190° 190° 15 kt METAR SBRJ 191900Z 19015KT 9999 FEW010 SCT020 BKN035 26/22 Q1016
15:00
V
27 °C 10 km+ 4.000 ft 180° 180° 13 kt METAR SBRJ 191800Z 18013KT 9999 FEW010 SCT018 BKN040 27/22 Q1015
14:00
V
27 °C 8 km 4.000 ft 180° 180° 14 kt METAR SBRJ 191700Z 18014KT 8000 FEW012 SCT018 BKN040 27/23 Q1015
13:00
V
28 °C 8 km - 180° 180° 11 kt METAR SBRJ 191600Z 18011KT 8000 FEW018 SCT035 28/23 Q1015
12:00
M
28 °C 7 km - 160° 160° 7 kt METAR SBRJ 191500Z 16007KT 7000 FEW018 SCT030 28/23 Q1017
11:00
M
27 °C 6 km - 040° 040° 3 kt METAR SBRJ 191400Z 04003KT 6000 FEW018 SCT030 27/24 Q1017
10:00
M
26 °C 6 km 3.000 ft 030° 030° 3 kt METAR SBRJ 191300Z 03003KT 6000 FEW018 BKN030 26/23 Q1018
09:00
M
26 °C 6 km 3.000 ft 350° 350° 5 kt METAR SBRJ 191200Z 35005KT 6000 FEW012 BKN030 26/23 Q1017
08:00
M
25 °C 6 km 9.000 ft 340° 340° 4 kt METAR SBRJ 191100Z 34004KT 6000 FEW012 SCT030 BKN090 25/23 Q1017
07:00
M
24 °C 5 km 9.000 ft 050° 050° 4 kt METAR SBRJ 191000Z 05004KT 5000 BR FEW020 SCT030 BKN090 24/23 Q1016
06:00
M
24 °C 5 km - 070° 070° 3 kt METAR SBRJ 190900Z 07003KT 5000 BR SCT030 SCT090 24/23 Q1016
05:00
M
24 °C 5 km 3.000 ft 360° 360° 4 kt METAR SBRJ 190800Z 36004KT 5000 BR BKN030 24/23 Q1015
04:00
M
24 °C 5 km 3.000 ft 010° 010° 4 kt METAR SBRJ 190700Z 01004KT 5000 BR BKN030 24/23 Q1015
03:00
M
24 °C 5 km 3.000 ft 070° 070° 2 kt METAR SBRJ 190600Z 07002KT 5000 BR BKN030 24/23 Q1015
02:00
M
24 °C 7 km - 120° 120° 4 kt METAR SBRJ 190500Z 12004KT 7000 SCT030 24/23 Q1015
01:00
M
24 °C 7 km - 110° 110° 2 kt METAR SBRJ 190400Z 11002KT 7000 SCT030 24/23 Q1016
00:00
M
24 °C 7 km - 190° 190° 4 kt METAR SBRJ 190300Z 19004KT 7000 SCT033 24/23 Q1016

2024年5月18日

时间 代码 天气 温度 能见度 天花板 METAR/SPECI
23:00
V
24 °C 8 km - 130° 130° 5 kt METAR SBRJ 190200Z 13005KT 8000 FEW030 24/23 Q1016
22:00
V
24 °C 10 km+ - 150° 150° 4 kt METAR SBRJ 190100Z 15004KT CAVOK 24/23 Q1016
21:00
V
24 °C 10 km+ - 110° 110° 3 kt METAR SBRJ 190000Z 11003KT CAVOK 24/23 Q1016
20:00
V
25 °C 10 km+ - 130° 130° 5 kt METAR SBRJ 182300Z 13005KT 9999 FEW040 25/23 Q1016
19:00
V
26 °C 10 km+ - 190° 190° 4 kt METAR SBRJ 182200Z 19004KT 9999 FEW040 26/21 Q1016
18:00
V
26 °C 10 km+ - 170° 170° 8 kt METAR SBRJ 182100Z 17008KT 9999 FEW040 26/21 Q1015
17:00
V
27 °C 10 km+ - 200° 200° 12 kt METAR SBRJ 182000Z 20012KT 9999 SCT040 27/21 Q1014
16:00
V
28 °C 10 km+ - 190° 190° 15 kt METAR SBRJ 181900Z 19015KT CAVOK 28/22 Q1014
15:00
V
29 °C 10 km+ - 190° 190° 16 kt METAR SBRJ 181800Z 19016KT CAVOK 29/22 Q1013
14:00
V
29 °C 10 km+ - 190° 190° 15 kt METAR SBRJ 181700Z 19015KT 9999 FEW025 29/22 Q1014
13:00
V
29 °C 10 km+ - 170° 170° 12 kt METAR SBRJ 181600Z 17012KT 9999 FEW025 29/22 Q1014
12:00
V
30 °C 10 km+ - 150° 150° 6 kt METAR SBRJ 181500Z 15006KT 120V190 9999 FEW023 30/23 Q1015
11:00
V
28 °C 10 km+ - 140° 140° 5 kt METAR SBRJ 181400Z 14005KT 9999 FEW020 28/23 Q1016
10:00
V
28 °C 9 km - 050° 050° 3 kt METAR SBRJ 181300Z 05003KT 360V100 9000 NSC 28/23 Q1017
09:00
V
26 °C 8 km - 010° 010° 5 kt METAR SBRJ 181200Z 01005KT 8000 NSC 26/23 Q1016
08:00
V
25 °C 10 km+ - 030° 030° 6 kt METAR SBRJ 181100Z 03006KT CAVOK 25/23 Q1016
07:00
V
24 °C 10 km+ - 020° 020° 7 kt METAR SBRJ 181000Z 02007KT CAVOK 24/23 Q1014
06:00
V
24 °C 10 km+ - 350° 350° 7 kt METAR SBRJ 180900Z 35007KT CAVOK 24/22 Q1013
05:00
V
25 °C 10 km+ - 330° 330° 6 kt METAR SBRJ 180800Z 33006KT CAVOK 25/22 Q1013
04:00
V
25 °C 10 km+ - 330° 330° 4 kt METAR SBRJ 180700Z 33004KT CAVOK 25/21 Q1012
03:00
V
25 °C 10 km+ - 330° 330° 7 kt METAR SBRJ 180600Z 33007KT CAVOK 25/22 Q1012
报告变更